Brookfield, New York
Current Conditions -  °F | °C
As of 2:53 AM on Saturday 25 Oct 2014 (Local Time) from KRME Reporting Station
Broken Clouds Broken Clouds  
Wind Chill: 38°   Ceiling: 1700
Heat Index: 38°   Visibility: 10mi
Dew Point: 38°   Wind: 0mph
Humidity: 100%   Direction: NA
Pressure: 29.89"   Gusts: NA
Location:  42.81°N, 75.31°W
Report Text: KRME 250653Z AUTO 00000KT 10SM BKN017 03/03 A2989 RMK AO2 SLP122 T00330033
Loading
Personal Weather Stations






























Interactive Weather Map
Tropical Storm Tracking
New forecast layout! Learn more

10-Day Weather Forecast

Advertisements
Track Severe Weather on mobile